Latest Weather Observations for Williamtown

IDN60901

Issued at 9:05 am EDT Monday 24 November 2014 (issued every 10 minutes, with the page automatically refreshed every 10 minutes)

About weather observations | Map of Sydney area stations | Latest observations for Sydney area | Other Formats
Station Details ID: 061078 Name: WILLIAMTOWN RAAF Lat: -32.79 Lon: 151.84 Height: 9.0 m
Data from the previous 72 hours. | See also: Recent months at Williamtown
Date/Time
EDT
Tmp

°C
App
Tmp
°C
Dew
Point
°C
Rel
Hum
%
Delta-T

°C
Wind Press
QNH
hPa
Press
MSL
hPa
Rain
since
9 am
mm
Dir
 
Spd
km/h
Gust
km/h
Spd
kts
Gust
kts
24/09:00am 23.4 23.5 20.3 83 2.0 S 20 28 11 15 1014.1 - 12.6
24/08:30am 23.0 23.0 20.1 84 1.9 S 20 28 11 15 1014.0 - 12.6
24/08:00am 22.6 24.5 20.6 88 1.3 SSW 11 17 6 9 1014.2 - 12.6
24/07:30am 22.1 22.5 20.6 91 1.0 S 19 26 10 14 1013.4 - 12.6
24/07:00am 21.4 23.4 20.8 96 0.4 S 11 15 6 8 1013.3 - 12.6
24/06:30am 21.1 21.8 20.5 96 0.4 S 17 22 9 12 1013.2 - 12.6
24/06:00am 20.9 21.9 20.3 96 0.4 SSE 15 17 8 9 1012.9 1012.9 12.6
24/05:30am 20.3 21.8 19.7 96 0.4 SW 11 15 6 8 1013.1 - 12.6
24/05:12am 20.3 22.5 19.7 96 0.4 WNW 7 11 4 6 1013.0 - 12.6
24/05:00am 20.5 24.1 19.7 95 0.5 CALM 0 0 0 0 1012.8 - 12.6
24/04:30am 21.0 24.7 19.9 93 0.7 CALM 0 0 0 0 1012.4 - 12.6
24/04:00am 21.5 23.2 20.1 92 0.9 SSE 11 15 6 8 1012.5 - 12.6
24/03:30am 21.7 22.2 20.1 91 1.0 SE 17 24 9 13 1012.5 - 12.6
24/03:00am 21.8 22.3 20.1 90 1.1 E 17 22 9 12 1012.6 1012.6 12.6
24/02:30am 21.8 23.5 20.1 90 1.1 ESE 11 17 6 9 1011.9 - 12.6
24/02:00am 21.9 23.7 20.4 91 1.0 ESE 11 15 6 8 1011.6 - 12.6
24/01:30am 21.8 22.9 20.4 92 0.9 NE 15 22 8 12 1012.3 - 12.6
24/01:00am 22.1 23.9 20.4 90 1.1 S 11 15 6 8 1011.8 - 12.6
24/12:30am 21.7 23.9 20.5 93 0.8 W 9 15 5 8 1012.6 - 12.6
24/12:00am 21.5 23.7 20.3 93 0.8 S 9 15 5 8 1012.6 1012.6 12.6
 
Date/Time
EDT
Tmp

°C
App
Tmp
°C
Dew
Point
°C
Rel
Hum
%
Delta-T

°C
Wind Press
QNH
hPa
Press
MSL
hPa
Rain
since
9 am
mm
Dir
 
Spd
km/h
Gust
km/h
Spd
kts
Gust
kts
23/11:30pm 21.7 24.8 20.3 92 0.9 S 4 11 2 6 1014.0 - 12.6
23/11:00pm 22.1 23.8 20.2 89 1.2 SSW 11 17 6 9 1014.2 - 12.6
23/10:30pm 24.9 21.8 18.4 67 4.1 SSW 32 43 17 23 1013.9 - 12.6
23/10:25pm 26.8 23.7 16.6 53 6.3 SSW 28 43 15 23 1013.7 - 12.6
23/10:00pm 27.2 26.3 16.9 53 6.4 ENE 17 24 9 13 1011.8 - 12.6
23/09:30pm 26.9 25.9 17.5 56 5.9 E 19 24 10 13 1011.0 - 12.6
23/09:00pm 28.7 26.7 15.5 44 8.1 NE 20 28 11 15 1010.6 1010.6 12.6
23/08:30pm 26.6 24.2 17.3 56 5.8 E 26 41 14 22 1010.8 - 12.6
23/08:20pm 25.8 23.3 18.0 62 4.9 E 28 35 15 19 1011.2 - 12.6
23/08:07pm 27.5 22.9 16.2 50 7.0 E 35 50 19 27 1010.5 - 12.6
23/08:00pm 25.9 22.6 18.0 61 5.0 E 32 37 17 20 1011.3 - 12.4
23/07:37pm 23.8 23.1 18.7 73 3.2 S 20 43 11 23 1012.4 - 9.4
23/07:30pm 23.8 19.2 19.6 77 2.7 WSW 43 61 23 33 1012.0 - 2.2
23/07:26pm 26.1 21.0 18.6 63 4.8 WSW 43 61 23 33 1011.8 - 0.2
23/07:22pm 31.5 25.7 13.8 34 10.7 SW 37 56 20 30 1011.2 - 0.0
23/07:00pm 32.7 29.1 15.3 35 10.8 S 28 43 15 23 1009.0 - 0.0
23/06:52pm 33.5 30.7 15.4 33 11.3 S 24 33 13 18 1008.7 - 0.0
23/06:30pm 34.6 33.3 17.2 35 11.2 NE 20 30 11 16 1006.7 - 0.0
23/06:00pm 35.9 34.4 15.4 29 12.9 NE 17 32 9 17 1006.6 1006.6 0.0
23/05:30pm 35.7 30.9 13.0 25 13.8 NE 30 39 16 21 1006.5 - 0.0
23/05:00pm 35.0 31.5 15.4 31 12.3 NE 28 37 15 20 1006.6 - 0.0
23/04:30pm 35.1 32.3 16.4 32 11.9 NE 26 32 14 17 1006.8 - 0.0
23/04:00pm 37.8 35.7 15.1 26 14.3 NE 20 28 11 15 1007.0 - 0.0
23/03:30pm 37.5 34.4 15.6 27 13.9 ENE 26 32 14 17 1007.5 - 0.0
23/03:00pm 36.8 35.0 15.9 29 13.3 ENE 20 26 11 14 1008.2 1008.2 0.0
23/02:30pm 38.0 37.9 17.8 30 13.2 NE 15 20 8 11 1008.6 - 0.0
23/02:00pm 37.6 38.2 18.5 32 12.6 ENE 13 19 7 10 1009.1 - 0.0
23/01:30pm 38.6 39.5 16.6 27 14.2 N 7 13 4 7 1009.6 - 0.0
23/01:00pm 36.8 37.4 16.9 31 12.8 N 9 17 5 9 1010.1 - 0.0
23/12:30pm 35.3 36.1 17.3 34 11.6 N 9 17 5 9 1010.6 - 0.0
23/12:00pm 33.2 34.3 18.8 42 9.4 NNW 11 15 6 8 1011.1 1011.1 0.0
23/11:30am 32.7 34.3 19.1 44 8.9 NNW 9 15 5 8 1011.3 - 0.0
23/11:00am 30.0 31.6 20.0 55 6.6 N 11 15 6 8 1011.6 - 0.0
23/10:30am 29.5 30.8 19.4 54 6.6 NW 11 17 6 9 1011.6 - 0.0
23/10:00am 27.8 28.1 18.8 58 5.8 WNW 15 19 8 10 1012.0 - 0.0
23/09:30am 25.1 25.6 19.3 70 3.7 NW 15 19 8 10 1012.2 - 0.0
23/09:00am 23.8 25.5 19.4 76 2.8 N 9 13 5 7 1012.2 1012.2 0.0
23/08:30am 22.1 23.8 19.3 84 1.8 WNW 9 15 5 8 1012.4 - -
23/08:00am 21.0 22.4 19.6 92 0.9 NW 11 17 6 9 1012.2 - -
23/07:30am 20.1 21.9 19.6 97 0.3 N 9 13 5 7 1011.7 - -
23/07:00am 19.9 21.6 19.4 97 0.3 NW 9 13 5 7 1011.5 - -
23/06:30am 19.9 21.2 19.4 97 0.3 WNW 11 17 6 9 1011.6 - -
23/06:00am 19.9 21.7 19.6 98 0.2 W 9 11 5 6 1011.3 1011.3 -
23/05:32am 19.7 21.1 19.5 99 0.1 WNW 11 13 6 7 1011.1 - -
23/05:30am 19.7 21.1 19.5 99 0.1 WNW 11 13 6 7 1011.1 - -
23/05:00am 19.7 21.1 19.5 99 0.1 WNW 11 15 6 8 1010.8 - -
23/04:30am 19.8 22.0 19.5 98 0.2 W 7 11 4 6 1010.8 - -
23/04:00am 19.9 22.3 19.7 99 0.1 W 6 13 3 7 1010.9 - -
23/03:30am 20.0 22.2 19.7 98 0.2 W 7 13 4 7 1010.7 - -
23/03:00am 20.2 23.1 19.9 98 0.2 SW 4 7 2 4 1011.0 1011.0 -
23/02:30am 20.1 23.7 19.8 98 0.2 CALM 0 0 0 0 1011.1 - -
23/02:23am 20.0 22.5 19.8 99 0.1 SW 6 9 3 5 1011.2 - -
23/02:00am 20.1 22.4 19.8 98 0.2 SSW 7 13 4 7 1011.5 - -
23/01:36am 20.0 21.9 19.7 98 0.2 SSW 9 11 5 6 1011.6 - -
23/01:30am 20.0 21.5 19.7 98 0.2 SSW 11 13 6 7 1011.6 - -
23/01:00am 20.2 22.1 19.7 97 0.3 SSW 9 11 5 6 1011.6 - -
23/12:30am 20.3 21.5 19.8 97 0.3 S 13 15 7 8 1012.2 - -
23/12:00am 20.5 21.7 19.9 96 0.4 S 13 17 7 9 1012.6 1012.6 -
 
Date/Time
EDT
Tmp

°C
App
Tmp
°C
Dew
Point
°C
Rel
Hum
%
Delta-T

°C
Wind Press
QNH
hPa
Press
MSL
hPa
Rain
since
9 am
mm
Dir
 
Spd
km/h
Gust
km/h
Spd
kts
Gust
kts
22/11:56pm 20.6 21.8 19.8 95 0.5 S 13 17 7 9 1012.7 - -
22/11:30pm 20.7 21.9 19.8 95 0.6 S 13 15 7 8 1012.6 - -
22/11:00pm 20.7 22.5 19.6 93 0.7 S 9 11 5 6 1012.7 - -
22/10:30pm 20.7 22.1 19.6 93 0.7 E 11 15 6 8 1012.4 - -
22/10:00pm 20.7 22.4 19.4 92 0.8 E 9 15 5 8 1012.6 - -
22/09:30pm 20.7 22.0 19.3 92 0.9 ENE 11 22 6 12 1012.5 - -
22/09:00pm 20.4 21.9 18.8 90 1.0 E 9 15 5 8 1012.4 1012.4 -
22/08:30pm 20.3 20.9 18.7 90 1.0 ENE 13 19 7 10 1011.9 - -
22/08:00pm 20.4 20.3 18.8 90 1.0 E 17 24 9 13 1012.0 - -
22/07:30pm 20.7 20.0 18.6 88 1.3 E 20 26 11 14 1011.8 - -
22/07:00pm 21.1 20.9 18.4 84 1.7 ESE 17 20 9 11 1011.6 - -
22/06:30pm 21.7 20.9 18.0 79 2.3 ESE 19 26 10 14 1011.3 - -
22/06:00pm 22.4 21.2 17.6 74 3.0 ESE 20 26 11 14 1010.9 1010.9 -
22/05:30pm 23.2 21.9 17.2 69 3.7 ESE 20 26 11 14 1010.8 - -
22/05:00pm 23.7 22.0 17.2 67 4.0 ESE 22 28 12 15 1010.5 - -
22/04:30pm 24.7 22.8 16.8 61 4.9 SE 22 30 12 16 1010.8 - -
22/04:00pm 24.9 23.3 16.6 60 5.1 ESE 20 28 11 15 1011.2 - -
22/03:30pm 25.4 23.5 16.6 58 5.4 ESE 22 28 12 15 1011.6 - -
22/03:00pm 24.7 22.1 16.0 58 5.3 SE 24 30 13 16 1012.2 1012.2 -
22/02:30pm 25.3 23.8 16.3 57 5.5 SE 19 28 10 15 1012.6 - -
22/02:00pm 25.4 24.4 16.6 58 5.4 SE 17 28 9 15 1012.9 - -
22/01:30pm 25.0 24.3 16.5 59 5.2 SE 15 22 8 12 1013.1 - -
22/01:00pm 24.0 22.9 16.3 62 4.7 SE 17 26 9 14 1013.7 - -
22/12:30pm 24.2 22.4 16.0 60 5.0 SSE 20 28 11 15 1014.3 - -
22/12:00pm 23.2 21.5 15.7 62 4.5 S 19 26 10 14 1014.8 1014.8 -
22/11:30am 23.7 21.9 15.9 61 4.7 SSW 20 22 11 12 1015.1 - -
22/11:00am 23.4 22.4 15.6 61 4.7 SSW 15 20 8 11 1015.5 - -
22/10:30am 22.6 22.3 15.4 64 4.3 SW 11 19 6 10 1015.5 - -
22/10:00am 21.6 20.9 15.4 68 3.7 SW 13 17 7 9 1015.6 - -
22/08:36am 20.2 19.0 16.2 78 2.4 SW 17 24 9 13 1016.0 - 0.0
22/08:30am 20.1 19.0 16.3 79 2.3 SSW 17 24 9 13 1016.1 - 0.0
22/08:00am 19.6 18.7 16.8 84 1.7 SSW 17 28 9 15 1015.9 - 0.0
22/07:47am 19.5 18.3 17.0 85 1.5 SSW 19 28 10 15 1015.6 - 0.0
22/07:30am 19.2 17.9 16.9 86 1.4 SSW 19 26 10 14 1015.4 - 0.0
22/07:20am 19.0 17.2 17.0 88 1.2 SSW 22 33 12 18 1015.4 - 0.0
22/07:03am 18.8 17.1 17.3 91 0.9 SSW 22 30 12 16 1015.2 - 0.0
22/07:00am 18.7 17.5 17.4 92 0.8 SSW 20 30 11 16 1015.1 - 0.0
22/06:30am 18.8 17.9 17.8 94 0.6 SSW 19 26 10 14 1014.9 - 0.0
22/06:00am 18.8 18.3 17.8 94 0.6 SSW 17 24 9 13 1014.3 1014.3 0.0
22/05:30am 18.7 17.6 17.7 94 0.6 SSW 20 28 11 15 1013.8 - 0.0
22/05:00am 18.7 17.2 17.7 94 0.6 SSW 22 30 12 16 1013.3 - 0.0
22/04:30am 18.8 17.3 17.8 94 0.6 SSW 22 30 12 16 1013.2 - 0.0
22/04:00am 18.9 16.7 17.8 93 0.7 SSW 26 41 14 22 1013.2 - 0.0
22/03:30am 19.1 16.6 18.0 93 0.7 SSW 28 35 15 19 1013.0 - 0.0
22/03:00am 19.4 16.9 18.1 92 0.8 SSW 28 39 15 21 1012.9 1012.9 0.0
22/02:30am 19.4 16.3 18.3 93 0.7 SSW 32 41 17 22 1012.8 - 0.0
22/02:00am 19.7 17.3 18.2 91 0.9 SSW 28 41 15 22 1012.8 - 0.0
22/01:42am 20.1 17.3 18.3 89 1.1 SSW 30 44 16 24 1013.1 - 0.0
22/01:30am 20.5 17.3 18.2 87 1.4 SSW 32 43 17 23 1013.1 - 0.0
22/01:01am 20.9 17.8 18.3 85 1.6 SSW 32 50 17 27 1012.7 - 0.0
22/01:00am 21.0 17.9 18.3 84 1.7 SSW 32 48 17 26 1012.8 - 0.0
22/12:30am 21.1 17.1 18.5 85 1.6 SSW 37 56 20 30 1012.3 - 0.0
22/12:12am 21.2 17.6 18.5 84 1.7 SSW 35 56 19 30 1012.1 - 0.0
22/12:00am 21.2 16.4 18.5 84 1.7 SSW 41 52 22 28 1012.0 1012.0 0.0
 
Date/Time
EDT
Tmp

°C
App
Tmp
°C
Dew
Point
°C
Rel
Hum
%
Delta-T

°C
Wind Press
QNH
hPa
Press
MSL
hPa
Rain
since
9 am
mm
Dir
 
Spd
km/h
Gust
km/h
Spd
kts
Gust
kts
21/11:30pm 21.6 17.6 18.4 82 2.0 SSW 37 56 20 30 1011.5 - 0.0
21/11:20pm 21.6 17.2 18.4 82 2.0 SSW 39 57 21 31 1011.3 - 0.0
21/11:00pm 21.7 16.6 18.5 82 2.0 SSW 43 59 23 32 1010.9 - 0.0
21/10:31pm 22.0 17.3 19.8 87 1.4 SSW 44 67 24 36 1010.4 - 0.0
21/10:30pm 22.1 17.6 19.8 87 1.5 SSW 43 57 23 31 1010.4 - 0.0
21/10:03pm 22.5 19.0 20.5 88 1.3 SSW 39 57 21 31 1009.8 - 0.0
21/10:00pm 22.4 19.0 20.6 89 1.2 SSW 39 56 21 30 1009.8 - 0.0
21/09:52pm 22.5 19.0 20.5 88 1.3 SSW 39 57 21 31 1009.6 - 0.0
21/09:47pm 22.5 19.0 20.5 88 1.3 SSW 39 57 21 31 1009.4 - 0.0
21/09:30pm 22.9 19.4 20.3 85 1.7 SSW 39 52 21 28 1008.8 - 0.0
21/09:00pm 23.7 20.8 20.0 80 2.4 SSW 35 52 19 28 1008.0 1008.0 0.0
21/08:52pm 24.1 20.7 19.8 77 2.8 SSW 37 52 20 28 1007.8 - 0.0
21/08:30pm 27.4 27.4 20.1 64 4.8 SSW 20 33 11 18 1006.4 - 0.0
21/08:21pm 27.4 25.9 20.2 65 4.7 SW 28 33 15 18 1006.0 - 0.0
21/08:00pm 29.8 31.0 19.9 55 6.5 NE 13 15 7 8 1005.4 - 0.0
21/07:30pm 30.7 31.6 19.2 50 7.5 NE 13 17 7 9 1005.0 - 0.0
21/07:00pm 32.2 32.2 18.9 45 8.7 NE 17 26 9 14 1004.6 - 0.0
21/06:30pm 34.7 34.8 17.5 36 11.1 ENE 13 20 7 11 1004.1 - 0.0
21/06:00pm 38.7 36.1 9.5 17 17.1 WNW 13 17 7 9 1003.8 1003.8 0.0
21/05:30pm 38.5 34.7 9.1 17 17.0 NNW 19 30 10 16 1003.7 - 0.0
21/05:00pm 39.4 35.5 9.3 16 17.6 NW 20 30 11 16 1003.8 - 0.0
21/04:30pm 38.4 33.1 6.9 14 17.7 NNW 24 37 13 20 1003.8 - 0.0
21/04:00pm 39.4 33.0 7.1 14 18.2 NW 30 39 16 21 1003.9 - 0.0
21/03:30pm 39.6 35.2 8.8 15 17.8 NW 22 35 12 19 1004.2 - 0.0
21/03:06pm 38.0 30.6 9.9 18 16.4 NW 39 48 21 26 1004.7 - 0.0
21/03:00pm 38.2 34.9 10.8 19 16.3 NNW 19 26 10 14 1004.7 1004.7 0.0
21/02:30pm 37.6 31.6 10.8 20 15.9 NW 33 52 18 28 1005.2 - 0.0
21/02:24pm 38.6 33.0 8.9 16 17.2 WNW 28 46 15 25 1004.9 - 0.0
21/02:00pm 38.5 32.1 8.7 16 17.2 WNW 32 48 17 26 1004.9 - 0.0
21/01:46pm 38.2 29.8 5.8 13 17.8 WNW 39 46 21 25 1004.9 - 0.0
21/01:44pm 38.2 31.4 5.1 13 18.0 NW 30 48 16 26 1005.0 - 0.0
21/01:30pm 38.8 33.3 9.3 17 17.2 WNW 28 41 15 22 1005.0 - 0.0
21/01:15pm 39.8 34.2 8.9 15 17.9 NW 28 46 15 25 1005.2 - 0.0
21/01:00pm 39.0 34.0 11.1 18 16.7 NNW 28 35 15 19 1005.4 - 0.0
21/12:45pm 38.4 33.2 10.3 18 16.6 NNW 28 46 15 25 1005.6 - 0.0
21/12:30pm 39.2 34.8 12.8 20 16.2 NNW 28 41 15 22 1005.8 - 0.0
21/12:00pm 39.0 34.4 12.2 20 16.3 WNW 28 46 15 25 1006.2 1006.2 0.0
21/11:59am 38.9 34.6 13.3 22 15.8 WNW 28 46 15 25 1006.2 - 0.0
21/11:30am 37.5 33.3 13.5 24 14.8 WNW 28 37 15 20 1006.6 - 0.0
21/11:00am 35.7 33.3 15.5 30 12.7 NNW 22 28 12 15 1007.0 - 0.0
21/10:30am 34.6 33.7 15.9 32 11.8 NW 15 24 8 13 1007.5 - 0.0
21/10:00am 33.4 33.0 16.1 35 10.9 NW 13 19 7 10 1007.7 - 0.0
21/09:30am 31.6 30.3 15.9 38 9.8 WNW 17 22 9 12 1007.9 - 0.0

Latest Capital City Observations: Canberra | Sydney | Melbourne | Brisbane | Adelaide | Perth | Hobart | Darwin

Other Formats:

Comma delimited format used in spreadsheet applications
http://www.bom.gov.au/fwo/IDN60901/IDN60901.94776.axf

JavaScript Object Notation format (JSON) in row-major order
http://www.bom.gov.au/fwo/IDN60901/IDN60901.94776.json